createdAt,value
2024-04-16T00:04:33.453Z,13.46
2024-04-16T00:09:34.389Z,13.37
2024-04-16T00:14:35.300Z,13.33
2024-04-16T00:19:36.249Z,13.29
2024-04-16T00:24:38.140Z,13.25
2024-04-16T00:29:37.044Z,13.21
2024-04-16T00:34:39.995Z,13.04
2024-04-16T00:39:38.881Z,10.58
2024-04-16T00:44:39.786Z,9.83
2024-04-16T00:49:40.747Z,9.46
2024-04-16T00:54:42.614Z,8.96
2024-04-16T00:59:43.539Z,9.10
2024-04-16T01:04:43.055Z,8.63
2024-04-16T01:09:43.074Z,8.53
2024-04-16T01:14:42.938Z,8.47
2024-04-16T01:19:43.905Z,8.53
2024-04-16T01:24:42.780Z,8.37
2024-04-16T01:29:44.704Z,8.10
2024-04-16T01:34:44.624Z,8.02
2024-04-16T01:39:44.543Z,7.87
2024-04-16T01:44:43.398Z,7.74
2024-04-16T01:49:45.396Z,7.56
2024-04-16T01:54:44.313Z,7.35
2024-04-16T01:59:46.225Z,7.27
2024-04-16T02:04:46.270Z,7.24
2024-04-16T02:09:45.152Z,6.97
2024-04-16T02:14:46.256Z,6.80
2024-04-16T02:19:48.129Z,6.66
2024-04-16T02:26:06.087Z,6.54
2024-04-16T02:29:47.137Z,6.43
2024-04-16T02:34:50.210Z,6.29
2024-04-16T02:39:49.299Z,6.14
2024-04-16T02:44:50.142Z,5.91
2024-04-16T02:49:51.343Z,5.77
2024-04-16T02:54:52.394Z,5.56
2024-04-16T02:59:53.812Z,5.41
2024-04-16T03:04:54.779Z,5.19
2024-04-16T03:09:55.688Z,5.05
2024-04-16T03:14:57.623Z,4.91
2024-04-16T03:19:56.704Z,4.70
2024-04-16T03:24:58.030Z,4.67
2024-04-16T03:29:59.161Z,4.62
2024-04-16T03:35:00.233Z,4.64
2024-04-16T03:40:02.188Z,4.76
2024-04-16T03:45:02.199Z,4.80
2024-04-16T03:50:02.092Z,4.84
2024-04-16T03:55:02.066Z,4.79
2024-04-16T04:00:01.089Z,5.12
2024-04-16T04:05:03.111Z,5.16
2024-04-16T04:10:03.073Z,5.23
2024-04-16T04:15:03.011Z,5.22
2024-04-16T04:20:01.960Z,5.23
2024-04-16T04:25:03.141Z,5.20
2024-04-16T04:30:05.206Z,5.22
2024-04-16T04:35:04.122Z,5.31
2024-04-16T04:40:05.396Z,5.32
2024-04-16T04:45:06.311Z,5.37
2024-04-16T04:50:07.311Z,5.40
2024-04-16T04:55:08.507Z,5.40
2024-04-16T05:00:09.569Z,5.49
2024-04-16T05:05:10.457Z,5.52
2024-04-16T05:10:11.568Z,5.52
2024-04-16T05:15:12.544Z,5.50
2024-04-16T05:20:14.423Z,5.59
2024-04-16T05:25:13.502Z,5.64
2024-04-16T05:30:14.664Z,5.75
2024-04-16T05:35:18.777Z,5.78
2024-04-16T05:40:16.821Z,5.74
2024-04-16T05:45:17.863Z,5.74
2024-04-16T05:50:18.830Z,5.68
2024-04-16T05:55:19.825Z,5.78
2024-04-16T06:00:20.890Z,5.81
2024-04-16T06:05:23.225Z,5.88
2024-04-16T06:10:22.336Z,5.81
2024-04-16T06:15:23.314Z,5.86
2024-04-16T06:20:24.275Z,6.06
2024-04-16T06:25:25.344Z,6.18
2024-04-16T06:30:26.358Z,5.74
2024-04-16T06:35:27.375Z,5.60
2024-04-16T06:40:28.374Z,5.49
2024-04-16T06:45:29.235Z,5.67
2024-04-16T06:50:30.233Z,5.82
2024-04-16T06:55:31.181Z,5.78
2024-04-16T07:00:32.177Z,5.49
2024-04-16T07:05:33.205Z,5.60
2024-04-16T07:10:34.338Z,5.60
2024-04-16T07:15:35.441Z,5.46
2024-04-16T07:20:39.942Z,5.66
2024-04-16T07:25:37.125Z,5.81
2024-04-16T07:30:38.107Z,5.75
2024-04-16T07:35:39.032Z,6.30
2024-04-16T07:40:40.101Z,6.35
2024-04-16T07:45:41.219Z,6.72
2024-04-16T07:50:42.201Z,6.76
2024-04-16T07:55:43.253Z,7.59
2024-04-16T08:00:45.271Z,8.14
2024-04-16T08:05:45.358Z,7.85
2024-04-16T08:10:44.431Z,7.85
2024-04-16T08:15:45.452Z,8.17
2024-04-16T08:20:46.438Z,8.15
2024-04-16T08:25:47.395Z,7.78
2024-04-16T08:30:48.443Z,7.97
2024-04-16T08:35:50.457Z,8.76
2024-04-16T08:40:49.532Z,10.12
2024-04-16T08:45:50.422Z,9.97
2024-04-16T08:50:51.355Z,9.76
2024-04-16T08:55:54.760Z,10.52
2024-04-16T09:00:53.057Z,11.34
2024-04-16T09:05:54.308Z,11.56
2024-04-16T09:10:51.802Z,11.16
2024-04-16T09:15:53.081Z,11.35
2024-04-16T09:20:57.912Z,11.02
2024-04-16T09:25:54.950Z,11.17
2024-04-16T09:30:55.933Z,12.49
2024-04-16T09:35:56.969Z,12.74
2024-04-16T09:40:57.978Z,12.46
2024-04-16T09:46:00.513Z,12.81
2024-04-16T09:51:00.254Z,13.17
2024-04-16T09:56:01.301Z,13.47
2024-04-16T10:01:02.522Z,13.46
2024-04-16T10:06:03.425Z,14.06
2024-04-16T10:11:11.406Z,12.01
2024-04-16T10:16:04.302Z,13.12
2024-04-16T10:21:05.236Z,10.99
2024-04-16T10:26:06.173Z,11.28
2024-04-16T10:31:07.218Z,12.82
2024-04-16T10:36:09.367Z,12.23
2024-04-16T10:41:08.423Z,12.79
2024-04-16T10:46:10.845Z,11.77
2024-04-16T10:51:11.046Z,11.61
2024-04-16T10:56:09.925Z,11.54
2024-04-16T11:01:13.970Z,12.21
2024-04-16T11:06:11.059Z,12.01
2024-04-16T11:11:12.176Z,11.72
2024-04-16T11:16:12.195Z,11.96
2024-04-16T11:21:14.256Z,11.94
2024-04-16T11:26:17.129Z,12.24
2024-04-16T11:31:14.297Z,12.75
2024-04-16T11:36:15.402Z,12.81
2024-04-16T11:41:16.632Z,13.02
2024-04-16T11:46:17.625Z,13.43
2024-04-16T11:51:18.580Z,12.59
2024-04-16T11:56:19.557Z,13.38
2024-04-16T12:01:20.779Z,13.94
2024-04-16T12:06:21.697Z,13.74
2024-04-16T12:11:22.714Z,12.82
2024-04-16T12:16:22.758Z,13.56
2024-04-16T12:21:23.741Z,13.76
2024-04-16T12:26:24.822Z,13.09
2024-04-16T12:31:25.722Z,12.12
2024-04-16T12:36:26.843Z,12.21
2024-04-16T12:41:27.788Z,12.29
2024-04-16T12:46:28.907Z,12.60
2024-04-16T12:51:29.827Z,12.52
2024-04-16T12:56:31.133Z,12.97
2024-04-16T13:01:32.254Z,12.45
2024-04-16T13:06:32.243Z,12.60
2024-04-16T13:11:33.252Z,12.23
2024-04-16T13:16:34.540Z,12.57
2024-04-16T13:21:35.563Z,13.15
2024-04-16T13:26:36.368Z,12.62
2024-04-16T13:31:37.446Z,12.79
2024-04-16T13:36:38.424Z,12.52
2024-04-16T13:41:40.710Z,12.24
2024-04-16T13:46:40.861Z,13.25
2024-04-16T13:51:40.010Z,14.37
2024-04-16T13:56:40.960Z,14.32
2024-04-16T14:01:41.973Z,13.33
2024-04-16T14:06:42.959Z,12.81
2024-04-16T14:11:43.952Z,12.41
2024-04-16T14:16:44.850Z,12.69
2024-04-16T14:21:45.712Z,12.52
2024-04-16T14:26:45.671Z,11.83
2024-04-16T14:31:46.818Z,11.82
2024-04-16T14:36:47.787Z,12.05
2024-04-16T14:41:48.800Z,12.42
2024-04-16T14:46:49.709Z,13.81
2024-04-16T14:51:50.631Z,13.24
2024-04-16T14:56:51.593Z,12.42
2024-04-16T15:01:53.707Z,12.49
2024-04-16T15:06:52.982Z,12.15
2024-04-16T15:11:53.973Z,11.97
2024-04-16T15:16:55.004Z,11.59
2024-04-16T15:21:56.104Z,11.77
2024-04-16T15:26:57.034Z,12.21
2024-04-16T15:31:57.987Z,13.02
2024-04-16T15:36:59.958Z,14.13
2024-04-16T15:41:58.891Z,13.41
2024-04-16T15:47:00.002Z,14.19
2024-04-16T15:52:00.941Z,13.24
2024-04-16T15:57:01.870Z,12.81
2024-04-16T16:02:02.841Z,12.54
2024-04-16T16:07:04.745Z,12.09
2024-04-16T16:12:03.908Z,11.90
2024-04-16T16:17:04.890Z,12.04
2024-04-16T16:22:05.929Z,12.09
2024-04-16T16:27:06.872Z,11.93
2024-04-16T16:32:08.799Z,11.94
2024-04-16T16:37:08.695Z,11.50
2024-04-16T16:42:10.827Z,11.52
2024-04-16T16:47:09.805Z,11.10
2024-04-16T16:52:10.830Z,10.89
2024-04-16T16:57:14.012Z,11.27
2024-04-16T17:02:12.973Z,10.99
2024-04-16T17:07:12.907Z,11.03
2024-04-16T17:12:15.907Z,11.46
2024-04-16T17:17:14.925Z,11.82
2024-04-16T17:22:16.003Z,12.05
2024-04-16T17:27:17.004Z,12.08
2024-04-16T17:32:19.051Z,11.28
2024-04-16T17:37:18.118Z,11.21
2024-04-16T17:42:19.497Z,11.14
2024-04-16T17:47:20.511Z,11.16
2024-04-16T17:52:21.391Z,11.13
2024-04-16T17:57:22.305Z,11.16
2024-04-16T18:02:23.515Z,11.25
2024-04-16T18:07:24.688Z,11.03
2024-04-16T18:12:25.601Z,10.94
2024-04-16T18:17:26.579Z,10.43
2024-04-16T18:22:27.614Z,9.75
2024-04-16T18:27:28.621Z,9.16
2024-04-16T18:32:29.586Z,8.91
2024-04-16T18:37:30.646Z,8.84
2024-04-16T18:42:32.516Z,8.84
2024-04-16T18:47:31.531Z,8.91
2024-04-16T18:52:32.434Z,9.01
2024-04-16T18:57:33.435Z,9.04
2024-04-16T19:02:35.449Z,8.79
2024-04-16T19:07:35.391Z,8.69
2024-04-16T19:12:34.307Z,8.71
2024-04-16T19:17:35.466Z,8.65
2024-04-16T19:22:36.380Z,8.75
2024-04-16T19:27:39.451Z,8.87
2024-04-16T19:32:39.418Z,8.91
2024-04-16T19:37:38.460Z,8.66
2024-04-16T19:42:40.388Z,7.78
2024-04-16T19:47:39.843Z,7.55
2024-04-16T19:52:41.104Z,7.37
2024-04-16T19:57:42.397Z,7.26
2024-04-16T20:02:43.732Z,7.04
2024-04-16T20:07:46.017Z,6.79
2024-04-16T20:12:45.026Z,6.66
2024-04-16T20:17:47.228Z,6.56
2024-04-16T20:22:47.270Z,6.41
2024-04-16T20:27:46.192Z,6.43
2024-04-16T20:32:47.381Z,6.50
2024-04-16T20:37:48.437Z,6.54
2024-04-16T20:42:49.359Z,6.51
2024-04-16T20:47:51.303Z,6.36
2024-04-16T20:52:50.246Z,6.41
2024-04-16T20:57:53.196Z,6.30
2024-04-16T21:02:52.405Z,6.30
2024-04-16T21:07:54.547Z,6.32
2024-04-16T21:12:53.412Z,6.38
2024-04-16T21:17:54.605Z,6.44
2024-04-16T21:22:55.516Z,6.38
2024-04-16T21:27:56.506Z,6.18
2024-04-16T21:32:57.398Z,6.28
2024-04-16T21:37:58.374Z,6.28
2024-04-16T21:42:59.232Z,6.30
2024-04-16T21:48:01.245Z,6.62
2024-04-16T21:52:59.201Z,6.65
2024-04-16T21:58:00.069Z,6.81
2024-04-16T22:03:01.302Z,6.79
2024-04-16T22:08:02.421Z,7.12
2024-04-16T22:13:03.520Z,6.89
2024-04-16T22:18:05.438Z,6.69
2024-04-16T22:23:04.635Z,6.72
2024-04-16T22:28:06.602Z,6.73
2024-04-16T22:33:06.615Z,6.63
2024-04-16T22:38:06.577Z,6.66
2024-04-16T22:43:05.508Z,6.73
2024-04-16T22:48:07.549Z,6.77
2024-04-16T22:53:06.453Z,6.80
2024-04-16T22:58:08.404Z,6.83
2024-04-16T23:03:07.566Z,6.84
2024-04-16T23:08:09.477Z,6.91
2024-04-16T23:13:08.413Z,6.87
2024-04-16T23:18:10.462Z,6.89
2024-04-16T23:23:09.380Z,6.84
2024-04-16T23:28:10.333Z,6.79
2024-04-16T23:33:13.316Z,6.71
2024-04-16T23:38:14.227Z,6.68
2024-04-16T23:43:12.165Z,6.77
2024-04-16T23:48:14.240Z,6.77
2024-04-16T23:53:13.219Z,6.73
2024-04-16T23:58:14.184Z,6.72
